createdAt,value
2022-09-17T00:02:13.963Z,9.99
2022-09-17T00:06:16.019Z,9.97
2022-09-17T00:10:19.246Z,10.00
2022-09-17T00:14:21.230Z,10.02
2022-09-17T00:18:23.208Z,10.01
2022-09-17T00:22:25.223Z,10.02
2022-09-17T00:26:28.547Z,10.04
2022-09-17T00:30:30.543Z,10.06
2022-09-17T00:34:32.643Z,10.11
2022-09-17T00:38:34.739Z,10.12
2022-09-17T00:42:36.850Z,10.17
2022-09-17T00:46:43.167Z,10.23
2022-09-17T00:50:45.293Z,10.25
2022-09-17T00:54:55.376Z,10.29
2022-09-17T00:58:57.963Z,10.29
2022-09-17T01:03:00.386Z,10.32
2022-09-17T01:07:25.315Z,10.28
2022-09-17T01:11:37.311Z,10.27
2022-09-17T01:15:53.288Z,10.29
2022-09-17T01:20:14.080Z,10.32
2022-09-17T01:24:25.346Z,10.31
2022-09-17T01:28:35.795Z,10.36
2022-09-17T01:32:41.946Z,10.40
2022-09-17T01:37:00.025Z,10.34
2022-09-17T01:41:12.461Z,10.29
2022-09-17T01:45:27.348Z,10.29
2022-09-17T01:49:31.884Z,10.35
2022-09-17T01:53:59.664Z,10.36
2022-09-17T01:58:20.996Z,10.35
2022-09-17T02:02:30.873Z,10.33
2022-09-17T02:06:38.454Z,10.31
2022-09-17T02:10:47.798Z,10.34
2022-09-17T02:14:54.020Z,10.31
2022-09-17T02:19:06.763Z,10.26
2022-09-17T02:23:17.246Z,10.24
2022-09-17T02:27:47.928Z,10.25
2022-09-17T02:31:50.402Z,10.26
2022-09-17T02:35:52.587Z,10.24
2022-09-17T02:39:55.139Z,10.21
2022-09-17T02:44:08.718Z,10.15
2022-09-17T02:48:29.646Z,10.13
2022-09-17T02:52:52.950Z,10.14
2022-09-17T02:57:14.160Z,10.13
2022-09-17T03:01:44.403Z,10.13
2022-09-17T03:05:46.854Z,10.14
2022-09-17T03:09:48.967Z,10.17
2022-09-17T03:13:51.003Z,10.15
2022-09-17T03:17:53.634Z,10.15
2022-09-17T03:21:55.783Z,10.17
2022-09-17T03:25:57.779Z,10.18
2022-09-17T03:29:59.972Z,10.18
2022-09-17T03:34:01.970Z,10.17
2022-09-17T03:38:04.484Z,10.14
2022-09-17T03:42:06.527Z,10.08
2022-09-17T03:46:08.586Z,10.12
2022-09-17T03:50:10.741Z,10.17
2022-09-17T03:54:12.753Z,10.16
2022-09-17T03:58:14.721Z,10.20
2022-09-17T04:02:16.818Z,10.20
2022-09-17T04:06:19.536Z,10.19
2022-09-17T04:10:21.588Z,10.21
2022-09-17T04:14:23.641Z,10.23
2022-09-17T04:18:25.661Z,10.21
2022-09-17T04:22:27.656Z,10.15
2022-09-17T04:26:29.669Z,10.08
2022-09-17T04:30:31.927Z,9.98
2022-09-17T04:34:34.285Z,9.92
2022-09-17T04:38:36.263Z,9.93
2022-09-17T04:42:38.239Z,9.93
2022-09-17T04:46:40.296Z,9.90
2022-09-17T04:50:42.333Z,9.86
2022-09-17T04:54:44.330Z,9.78
2022-09-17T04:58:46.478Z,9.73
2022-09-17T05:02:50.934Z,9.66
2022-09-17T05:06:53.056Z,9.63
2022-09-17T05:10:55.110Z,9.58
2022-09-17T05:14:57.106Z,9.55
2022-09-17T05:18:59.299Z,9.52
2022-09-17T05:23:01.395Z,9.55
2022-09-17T05:27:03.746Z,9.62
2022-09-17T05:31:05.895Z,9.75
2022-09-17T05:35:08.939Z,9.91
2022-09-17T05:39:10.946Z,9.96
2022-09-17T05:43:12.943Z,9.99
2022-09-17T05:47:14.968Z,10.05
2022-09-17T05:51:16.960Z,10.13
2022-09-17T05:55:20.526Z,10.29
2022-09-17T05:59:22.556Z,10.30
2022-09-17T06:03:24.614Z,10.30
2022-09-17T06:07:26.650Z,10.31
2022-09-17T06:11:28.711Z,10.46
2022-09-17T06:15:30.812Z,10.65
2022-09-17T06:19:32.813Z,10.68
2022-09-17T06:23:37.820Z,10.84
2022-09-17T06:27:39.861Z,10.85
2022-09-17T06:31:44.836Z,11.10
2022-09-17T06:35:47.378Z,12.48
2022-09-17T06:39:49.552Z,13.12
2022-09-17T06:43:54.641Z,13.15
2022-09-17T06:47:56.662Z,12.59
2022-09-17T06:51:58.874Z,12.19
2022-09-17T06:56:06.177Z,12.27
2022-09-17T07:00:09.742Z,12.10
2022-09-17T07:04:11.740Z,12.17
2022-09-17T07:08:13.740Z,12.10
2022-09-17T07:12:15.799Z,12.15
2022-09-17T07:16:17.862Z,12.33
2022-09-17T07:20:19.948Z,12.48
2022-09-17T07:24:21.963Z,12.53
2022-09-17T07:28:25.031Z,12.47
2022-09-17T07:32:30.277Z,12.56
2022-09-17T07:36:32.288Z,12.62
2022-09-17T07:40:34.444Z,12.84
2022-09-17T07:44:37.072Z,13.01
2022-09-17T07:48:39.087Z,13.22
2022-09-17T07:52:47.996Z,13.25
2022-09-17T07:56:50.021Z,13.33
2022-09-17T08:00:52.004Z,13.19
2022-09-17T08:04:54.133Z,12.98
2022-09-17T08:08:58.112Z,13.21
2022-09-17T08:13:00.723Z,13.41
2022-09-17T08:17:02.782Z,13.58
2022-09-17T08:21:06.751Z,13.75
2022-09-17T08:25:10.031Z,13.69
2022-09-17T08:29:12.080Z,13.73
2022-09-17T08:33:14.180Z,13.74
2022-09-17T08:37:16.551Z,13.74
2022-09-17T08:41:39.881Z,13.99
2022-09-17T08:45:42.331Z,14.10
2022-09-17T08:49:57.825Z,14.36
2022-09-17T08:54:29.134Z,14.50
2022-09-17T08:58:35.216Z,14.38
2022-09-17T09:03:17.063Z,13.89
2022-09-17T09:07:26.127Z,13.93
2022-09-17T09:11:31.060Z,14.31
2022-09-17T09:15:47.501Z,14.43
2022-09-17T09:19:50.007Z,14.66
2022-09-17T09:24:23.027Z,14.71
2022-09-17T09:28:52.984Z,14.52
2022-09-17T09:33:11.862Z,14.32
2022-09-17T09:37:25.550Z,14.36
2022-09-17T09:41:37.481Z,14.50
2022-09-17T09:46:06.562Z,14.56
2022-09-17T09:51:05.714Z,14.38
2022-09-17T09:55:27.068Z,14.04
2022-09-17T09:59:29.508Z,14.02
2022-09-17T10:03:34.697Z,13.96
2022-09-17T10:07:44.668Z,13.77
2022-09-17T10:12:00.093Z,13.62
2022-09-17T10:16:22.939Z,13.64
2022-09-17T10:20:25.052Z,13.66
2022-09-17T10:24:30.964Z,13.80
2022-09-17T10:28:36.086Z,13.82
2022-09-17T10:32:38.107Z,13.81
2022-09-17T10:36:42.759Z,14.23
2022-09-17T10:40:44.744Z,14.61
2022-09-17T10:44:57.854Z,14.84
2022-09-17T10:49:10.131Z,14.83
2022-09-17T10:53:17.524Z,14.82
2022-09-17T10:57:46.338Z,14.81
2022-09-17T11:02:28.288Z,14.67
2022-09-17T11:07:09.933Z,14.65
2022-09-17T11:11:37.048Z,14.73
2022-09-17T11:16:04.196Z,14.57
2022-09-17T11:20:22.246Z,14.58
2022-09-17T11:24:50.648Z,14.69
2022-09-17T11:29:18.507Z,15.00
2022-09-17T11:33:20.493Z,14.99
2022-09-17T11:37:35.463Z,14.39
2022-09-17T11:41:42.599Z,14.13
2022-09-17T11:46:16.358Z,14.24
2022-09-17T11:50:29.685Z,14.50
2022-09-17T11:54:49.953Z,14.58
2022-09-17T11:58:58.625Z,14.90
2022-09-17T12:03:10.478Z,15.49
2022-09-17T12:07:38.745Z,15.87
2022-09-17T12:11:57.187Z,15.76
2022-09-17T12:16:27.696Z,15.61
2022-09-17T12:20:38.763Z,15.69
2022-09-17T12:24:41.979Z,15.91
2022-09-17T12:28:58.705Z,15.92
2022-09-17T12:33:15.346Z,16.20
2022-09-17T12:37:42.342Z,16.35
2022-09-17T12:41:58.056Z,16.37
2022-09-17T12:46:21.150Z,16.63
2022-09-17T12:51:06.531Z,16.68
2022-09-17T12:55:31.043Z,16.33
2022-09-17T12:59:35.847Z,16.26
2022-09-17T13:03:48.998Z,16.45
2022-09-17T13:08:05.445Z,16.58
2022-09-17T13:12:46.381Z,17.09
2022-09-17T13:17:02.680Z,17.58
2022-09-17T13:21:14.232Z,17.64
2022-09-17T13:25:18.996Z,17.51
2022-09-17T13:29:45.926Z,17.57
2022-09-17T13:33:55.867Z,17.33
2022-09-17T13:37:59.839Z,16.95
2022-09-17T13:42:22.353Z,16.50
2022-09-17T13:46:29.107Z,16.03
2022-09-17T13:50:39.629Z,15.61
2022-09-17T13:54:42.385Z,15.08
2022-09-17T13:58:44.457Z,13.85
2022-09-17T14:02:46.475Z,13.17
2022-09-17T14:06:52.450Z,12.94
2022-09-17T14:10:55.628Z,12.72
2022-09-17T14:14:57.665Z,12.61
2022-09-17T14:19:03.154Z,12.78
2022-09-17T14:23:05.333Z,13.01
2022-09-17T14:27:50.947Z,13.31
2022-09-17T14:31:52.994Z,13.68
2022-09-17T14:36:16.509Z,14.11
2022-09-17T14:40:19.842Z,14.39
2022-09-17T14:44:27.136Z,14.53
2022-09-17T14:48:33.432Z,14.52
2022-09-17T14:52:35.332Z,14.62
2022-09-17T14:56:48.295Z,14.78
2022-09-17T15:00:52.882Z,15.05
2022-09-17T15:04:55.108Z,15.33
2022-09-17T15:08:57.658Z,15.26
2022-09-17T15:13:02.492Z,15.06
2022-09-17T15:17:08.907Z,14.76
2022-09-17T15:21:40.038Z,14.63
2022-09-17T15:25:44.006Z,14.33
2022-09-17T15:29:53.971Z,13.93
2022-09-17T15:33:59.563Z,13.67
2022-09-17T15:38:22.308Z,13.47
2022-09-17T15:42:30.812Z,13.19
2022-09-17T15:46:33.495Z,13.05
2022-09-17T15:50:52.025Z,12.92
2022-09-17T15:54:54.150Z,12.80
2022-09-17T15:59:05.247Z,12.64
2022-09-17T16:03:39.371Z,12.60
2022-09-17T16:07:41.433Z,12.50
2022-09-17T16:11:44.018Z,12.43
2022-09-17T16:15:46.449Z,12.35
2022-09-17T16:19:48.466Z,12.29
2022-09-17T16:23:50.756Z,12.18
2022-09-17T16:28:13.505Z,12.14
2022-09-17T16:32:15.522Z,12.17
2022-09-17T16:36:18.130Z,12.21
2022-09-17T16:40:21.975Z,12.09
2022-09-17T16:44:24.057Z,12.06
2022-09-17T16:48:26.370Z,11.97
2022-09-17T16:52:28.352Z,11.84
2022-09-17T16:56:30.378Z,11.74
2022-09-17T17:00:32.447Z,11.78
2022-09-17T17:04:34.491Z,11.72
2022-09-17T17:08:36.888Z,11.67
2022-09-17T17:12:38.875Z,11.58
2022-09-17T17:16:42.604Z,11.48
2022-09-17T17:20:44.873Z,11.37
2022-09-17T17:24:46.891Z,11.24
2022-09-17T17:28:49.337Z,11.05
2022-09-17T17:32:52.769Z,10.91
2022-09-17T17:36:54.774Z,10.80
2022-09-17T17:41:25.438Z,10.64
2022-09-17T17:45:28.171Z,10.55
2022-09-17T17:49:30.155Z,10.50
2022-09-17T17:53:32.296Z,10.45
2022-09-17T17:57:34.317Z,10.40
2022-09-17T18:01:38.216Z,10.29
2022-09-17T18:05:40.313Z,10.19
2022-09-17T18:09:42.511Z,10.12
2022-09-17T18:13:44.534Z,10.07
2022-09-17T18:17:48.003Z,10.08
2022-09-17T18:21:50.024Z,10.09
2022-09-17T18:25:56.391Z,10.06
2022-09-17T18:29:58.428Z,10.07
2022-09-17T18:34:01.880Z,10.11
2022-09-17T18:38:06.664Z,10.09
2022-09-17T18:42:09.220Z,10.02
2022-09-17T18:46:11.563Z,10.02
2022-09-17T18:50:14.349Z,10.01
2022-09-17T18:54:16.367Z,10.06
2022-09-17T18:58:18.348Z,10.16
2022-09-17T19:02:20.390Z,10.20
2022-09-17T19:06:22.622Z,10.19
2022-09-17T19:10:25.154Z,10.17
2022-09-17T19:14:27.143Z,10.16
2022-09-17T19:18:29.391Z,10.14
2022-09-17T19:22:32.398Z,10.16
2022-09-17T19:26:34.390Z,10.10
2022-09-17T19:30:36.436Z,10.02
2022-09-17T19:34:38.434Z,10.04
2022-09-17T19:38:40.767Z,10.07
2022-09-17T19:42:43.087Z,10.01
2022-09-17T19:46:46.385Z,9.90
2022-09-17T19:50:53.209Z,9.85
2022-09-17T19:54:55.227Z,9.79
2022-09-17T19:58:59.853Z,9.79
2022-09-17T20:03:03.499Z,9.80
2022-09-17T20:07:05.594Z,9.78
2022-09-17T20:11:10.094Z,9.74
2022-09-17T20:15:12.111Z,9.74
2022-09-17T20:19:16.468Z,9.72
2022-09-17T20:23:18.450Z,9.71
2022-09-17T20:27:20.441Z,9.71
2022-09-17T20:31:25.699Z,9.82
2022-09-17T20:35:27.714Z,9.89
2022-09-17T20:39:30.089Z,10.01
2022-09-17T20:43:37.628Z,10.10
2022-09-17T20:47:39.581Z,10.17
2022-09-17T20:51:41.595Z,10.20
2022-09-17T20:55:43.589Z,10.18
2022-09-17T20:59:57.604Z,10.11
2022-09-17T21:04:01.055Z,10.10
2022-09-17T21:08:03.089Z,10.13
2022-09-17T21:12:05.363Z,10.21
2022-09-17T21:16:08.289Z,10.31
2022-09-17T21:20:10.490Z,10.43
2022-09-17T21:24:12.661Z,10.50
2022-09-17T21:28:14.695Z,10.58
2022-09-17T21:32:16.706Z,10.64
2022-09-17T21:36:21.000Z,10.72
2022-09-17T21:40:23.057Z,10.75
2022-09-17T21:44:25.110Z,10.76
2022-09-17T21:48:27.609Z,10.77
2022-09-17T21:52:29.960Z,10.75
2022-09-17T21:56:32.554Z,10.74
2022-09-17T22:00:34.829Z,10.66
2022-09-17T22:04:36.907Z,10.62
2022-09-17T22:08:39.925Z,10.61
2022-09-17T22:12:41.934Z,10.60
2022-09-17T22:16:45.743Z,10.58
2022-09-17T22:20:47.770Z,10.57
2022-09-17T22:24:50.067Z,10.57
2022-09-17T22:28:52.551Z,10.60
2022-09-17T22:32:54.610Z,10.63
2022-09-17T22:36:56.639Z,10.66
2022-09-17T22:41:04.078Z,10.63
2022-09-17T22:45:08.093Z,10.67
2022-09-17T22:49:11.707Z,10.69
2022-09-17T22:53:13.755Z,10.68
2022-09-17T22:57:15.775Z,10.73
2022-09-17T23:01:23.772Z,10.75
2022-09-17T23:05:25.830Z,10.73
2022-09-17T23:09:27.823Z,10.75
2022-09-17T23:13:29.965Z,10.74
2022-09-17T23:17:32.021Z,10.74
2022-09-17T23:21:34.194Z,10.70
2022-09-17T23:25:36.291Z,10.65
2022-09-17T23:29:38.295Z,10.65
2022-09-17T23:33:41.040Z,10.65
2022-09-17T23:37:43.077Z,10.63
2022-09-17T23:41:45.569Z,10.61
2022-09-17T23:45:56.497Z,10.65
2022-09-17T23:49:58.695Z,10.68
2022-09-17T23:54:01.008Z,10.70
2022-09-17T23:58:03.794Z,10.70
